sensor_id;sensor_type;location;lat;lon;timestamp;P1;durP1;ratioP1;P2;durP2;ratioP2
22439;SDS011;11387;51.612;7.210;2024-01-16T00:00:38;18.40;;;9.48;;
22439;SDS011;11387;51.612;7.210;2024-01-16T00:03:01;21.23;;;11.05;;
22439;SDS011;11387;51.612;7.210;2024-01-16T00:05:26;20.30;;;10.18;;
22439;SDS011;11387;51.612;7.210;2024-01-16T00:07:49;25.17;;;10.27;;
22439;SDS011;11387;51.612;7.210;2024-01-16T00:10:13;19.60;;;10.13;;
22439;SDS011;11387;51.612;7.210;2024-01-16T00:12:38;22.38;;;11.23;;
22439;SDS011;11387;51.612;7.210;2024-01-16T00:15:02;21.27;;;9.88;;
22439;SDS011;11387;51.612;7.210;2024-01-16T00:17:29;22.23;;;11.32;;
22439;SDS011;11387;51.612;7.210;2024-01-16T00:19:52;17.85;;;9.75;;
22439;SDS011;11387;51.612;7.210;2024-01-16T00:22:16;28.27;;;10.95;;
22439;SDS011;11387;51.612;7.210;2024-01-16T00:24:40;22.45;;;11.02;;
22439;SDS011;11387;51.612;7.210;2024-01-16T00:27:03;22.13;;;9.80;;
22439;SDS011;11387;51.612;7.210;2024-01-16T00:29:32;15.43;;;8.60;;
22439;SDS011;11387;51.612;7.210;2024-01-16T00:31:55;18.73;;;9.32;;
22439;SDS011;11387;51.612;7.210;2024-01-16T00:34:20;21.30;;;9.48;;
22439;SDS011;11387;51.612;7.210;2024-01-16T00:36:44;13.20;;;8.73;;
22439;SDS011;11387;51.612;7.210;2024-01-16T00:39:08;18.92;;;9.05;;
22439;SDS011;11387;51.612;7.210;2024-01-16T00:41:31;19.33;;;7.93;;
22439;SDS011;11387;51.612;7.210;2024-01-16T00:43:55;18.65;;;8.80;;
22439;SDS011;11387;51.612;7.210;2024-01-16T00:46:20;23.02;;;8.70;;
22439;SDS011;11387;51.612;7.210;2024-01-16T00:48:43;22.27;;;8.98;;
22439;SDS011;11387;51.612;7.210;2024-01-16T00:51:09;18.45;;;8.07;;
22439;SDS011;11387;51.612;7.210;2024-01-16T00:53:32;18.50;;;9.00;;
22439;SDS011;11387;51.612;7.210;2024-01-16T00:55:56;25.08;;;9.07;;
22439;SDS011;11387;51.612;7.210;2024-01-16T00:58:21;16.08;;;8.07;;
22439;SDS011;11387;51.612;7.210;2024-01-16T01:00:45;18.25;;;8.27;;
22439;SDS011;11387;51.612;7.210;2024-01-16T01:03:09;19.17;;;7.65;;
22439;SDS011;11387;51.612;7.210;2024-01-16T01:05:32;18.85;;;8.25;;
22439;SDS011;11387;51.612;7.210;2024-01-16T01:07:57;20.10;;;7.95;;
22439;SDS011;11387;51.612;7.210;2024-01-16T01:10:21;20.40;;;8.30;;
22439;SDS011;11387;51.612;7.210;2024-01-16T01:12:45;24.35;;;8.75;;
22439;SDS011;11387;51.612;7.210;2024-01-16T01:15:09;17.00;;;8.52;;
22439;SDS011;11387;51.612;7.210;2024-01-16T01:17:32;17.52;;;9.10;;
22439;SDS011;11387;51.612;7.210;2024-01-16T01:19:57;12.90;;;7.47;;
22439;SDS011;11387;51.612;7.210;2024-01-16T01:22:21;19.35;;;8.23;;
22439;SDS011;11387;51.612;7.210;2024-01-16T01:24:46;22.88;;;9.27;;
22439;SDS011;11387;51.612;7.210;2024-01-16T01:27:09;21.38;;;8.82;;
22439;SDS011;11387;51.612;7.210;2024-01-16T01:29:33;12.98;;;8.00;;
22439;SDS011;11387;51.612;7.210;2024-01-16T01:31:57;18.45;;;9.35;;
22439;SDS011;11387;51.612;7.210;2024-01-16T01:34:20;17.77;;;9.35;;
22439;SDS011;11387;51.612;7.210;2024-01-16T01:36:44;26.27;;;9.10;;
22439;SDS011;11387;51.612;7.210;2024-01-16T01:39:07;17.92;;;8.63;;
22439;SDS011;11387;51.612;7.210;2024-01-16T01:41:33;18.35;;;9.35;;
22439;SDS011;11387;51.612;7.210;2024-01-16T01:43:57;21.63;;;8.55;;
22439;SDS011;11387;51.612;7.210;2024-01-16T01:46:20;17.35;;;7.25;;
22439;SDS011;11387;51.612;7.210;2024-01-16T01:48:45;15.30;;;8.02;;
22439;SDS011;11387;51.612;7.210;2024-01-16T01:51:11;17.75;;;7.60;;
22439;SDS011;11387;51.612;7.210;2024-01-16T01:53:36;18.48;;;8.50;;
22439;SDS011;11387;51.612;7.210;2024-01-16T01:56:01;20.95;;;8.32;;
22439;SDS011;11387;51.612;7.210;2024-01-16T01:58:29;15.48;;;8.25;;
22439;SDS011;11387;51.612;7.210;2024-01-16T02:00:53;22.55;;;7.90;;
22439;SDS011;11387;51.612;7.210;2024-01-16T02:03:16;23.70;;;7.93;;
22439;SDS011;11387;51.612;7.210;2024-01-16T02:05:41;22.20;;;8.18;;
22439;SDS011;11387;51.612;7.210;2024-01-16T02:08:05;17.95;;;7.45;;
22439;SDS011;11387;51.612;7.210;2024-01-16T02:10:30;19.05;;;8.60;;
22439;SDS011;11387;51.612;7.210;2024-01-16T02:24:59;17.02;;;8.32;;
22439;SDS011;11387;51.612;7.210;2024-01-16T02:27:23;24.05;;;8.13;;
22439;SDS011;11387;51.612;7.210;2024-01-16T02:29:47;19.73;;;7.70;;
22439;SDS011;11387;51.612;7.210;2024-01-16T02:32:20;19.48;;;7.85;;
22439;SDS011;11387;51.612;7.210;2024-01-16T02:34:44;10.25;;;6.70;;
22439;SDS011;11387;51.612;7.210;2024-01-16T02:37:08;15.30;;;7.15;;
22439;SDS011;11387;51.612;7.210;2024-01-16T02:39:32;13.65;;;7.72;;
22439;SDS011;11387;51.612;7.210;2024-01-16T02:41:56;18.55;;;7.88;;
22439;SDS011;11387;51.612;7.210;2024-01-16T02:44:20;18.67;;;7.57;;
22439;SDS011;11387;51.612;7.210;2024-01-16T02:46:43;14.85;;;8.10;;
22439;SDS011;11387;51.612;7.210;2024-01-16T02:49:07;14.18;;;8.02;;
22439;SDS011;11387;51.612;7.210;2024-01-16T02:51:31;12.50;;;7.93;;
22439;SDS011;11387;51.612;7.210;2024-01-16T02:53:54;15.88;;;8.40;;
22439;SDS011;11387;51.612;7.210;2024-01-16T02:56:18;20.27;;;8.85;;
22439;SDS011;11387;51.612;7.210;2024-01-16T02:58:45;20.63;;;8.50;;
22439;SDS011;11387;51.612;7.210;2024-01-16T03:01:09;27.15;;;10.48;;
22439;SDS011;11387;51.612;7.210;2024-01-16T03:03:32;21.30;;;9.25;;
22439;SDS011;11387;51.612;7.210;2024-01-16T03:05:58;15.50;;;8.10;;
22439;SDS011;11387;51.612;7.210;2024-01-16T03:08:21;12.40;;;7.13;;
22439;SDS011;11387;51.612;7.210;2024-01-16T03:10:45;22.33;;;8.48;;
22439;SDS011;11387;51.612;7.210;2024-01-16T03:13:09;16.85;;;8.30;;
22439;SDS011;11387;51.612;7.210;2024-01-16T03:15:46;12.35;;;7.72;;
22439;SDS011;11387;51.612;7.210;2024-01-16T03:18:10;17.73;;;7.82;;
22439;SDS011;11387;51.612;7.210;2024-01-16T03:20:33;15.23;;;7.80;;
22439;SDS011;11387;51.612;7.210;2024-01-16T03:22:57;17.23;;;8.18;;
22439;SDS011;11387;51.612;7.210;2024-01-16T03:25:20;15.77;;;7.93;;
22439;SDS011;11387;51.612;7.210;2024-01-16T03:27:44;19.35;;;9.20;;
22439;SDS011;11387;51.612;7.210;2024-01-16T03:30:08;19.17;;;9.60;;
22439;SDS011;11387;51.612;7.210;2024-01-16T03:32:33;14.95;;;8.90;;
22439;SDS011;11387;51.612;7.210;2024-01-16T03:34:58;21.40;;;9.35;;
22439;SDS011;11387;51.612;7.210;2024-01-16T03:37:22;19.52;;;8.27;;
22439;SDS011;11387;51.612;7.210;2024-01-16T03:39:46;13.98;;;8.55;;
22439;SDS011;11387;51.612;7.210;2024-01-16T03:42:11;19.92;;;8.95;;
22439;SDS011;11387;51.612;7.210;2024-01-16T03:44:55;17.17;;;8.52;;
22439;SDS011;11387;51.612;7.210;2024-01-16T03:47:19;22.40;;;8.77;;
22439;SDS011;11387;51.612;7.210;2024-01-16T03:49:44;20.00;;;9.27;;
22439;SDS011;11387;51.612;7.210;2024-01-16T03:52:08;16.30;;;8.98;;
22439;SDS011;11387;51.612;7.210;2024-01-16T03:54:31;14.23;;;8.20;;
22439;SDS011;11387;51.612;7.210;2024-01-16T03:56:55;18.98;;;9.15;;
22439;SDS011;11387;51.612;7.210;2024-01-16T03:59:19;13.32;;;7.97;;
22439;SDS011;11387;51.612;7.210;2024-01-16T04:01:43;21.23;;;9.10;;
22439;SDS011;11387;51.612;7.210;2024-01-16T04:04:07;17.17;;;9.10;;
22439;SDS011;11387;51.612;7.210;2024-01-16T04:06:33;18.27;;;9.65;;
22439;SDS011;11387;51.612;7.210;2024-01-16T04:08:57;13.65;;;8.48;;
22439;SDS011;11387;51.612;7.210;2024-01-16T04:11:20;25.67;;;10.25;;
22439;SDS011;11387;51.612;7.210;2024-01-16T04:13:44;19.13;;;9.77;;
22439;SDS011;11387;51.612;7.210;2024-01-16T04:16:09;19.48;;;9.13;;
22439;SDS011;11387;51.612;7.210;2024-01-16T04:18:35;22.88;;;10.02;;
22439;SDS011;11387;51.612;7.210;2024-01-16T04:21:00;24.60;;;9.98;;
22439;SDS011;11387;51.612;7.210;2024-01-16T04:23:24;21.88;;;10.02;;
22439;SDS011;11387;51.612;7.210;2024-01-16T04:25:48;15.85;;;9.52;;
22439;SDS011;11387;51.612;7.210;2024-01-16T04:28:11;16.63;;;9.70;;
22439;SDS011;11387;51.612;7.210;2024-01-16T04:30:35;15.80;;;9.60;;
22439;SDS011;11387;51.612;7.210;2024-01-16T04:32:59;23.02;;;10.40;;
22439;SDS011;11387;51.612;7.210;2024-01-16T04:35:22;19.88;;;9.73;;
22439;SDS011;11387;51.612;7.210;2024-01-16T04:37:46;26.38;;;10.82;;
22439;SDS011;11387;51.612;7.210;2024-01-16T04:40:11;20.00;;;10.90;;
22439;SDS011;11387;51.612;7.210;2024-01-16T04:42:35;22.63;;;11.77;;
22439;SDS011;11387;51.612;7.210;2024-01-16T04:44:58;19.83;;;10.48;;
22439;SDS011;11387;51.612;7.210;2024-01-16T04:47:22;24.42;;;9.73;;
22439;SDS011;11387;51.612;7.210;2024-01-16T04:49:46;19.75;;;10.98;;
22439;SDS011;11387;51.612;7.210;2024-01-16T04:52:09;23.63;;;9.90;;
22439;SDS011;11387;51.612;7.210;2024-01-16T04:54:33;22.80;;;10.45;;
22439;SDS011;11387;51.612;7.210;2024-01-16T04:56:57;22.30;;;9.93;;
22439;SDS011;11387;51.612;7.210;2024-01-16T04:59:21;16.15;;;9.45;;
22439;SDS011;11387;51.612;7.210;2024-01-16T05:01:44;20.45;;;9.52;;
22439;SDS011;11387;51.612;7.210;2024-01-16T05:04:08;18.05;;;10.20;;
22439;SDS011;11387;51.612;7.210;2024-01-16T05:06:32;22.15;;;10.45;;
22439;SDS011;11387;51.612;7.210;2024-01-16T05:08:56;18.95;;;9.68;;
22439;SDS011;11387;51.612;7.210;2024-01-16T05:11:20;19.42;;;9.88;;
22439;SDS011;11387;51.612;7.210;2024-01-16T05:13:45;21.25;;;9.73;;
22439;SDS011;11387;51.612;7.210;2024-01-16T05:16:09;15.13;;;8.70;;
22439;SDS011;11387;51.612;7.210;2024-01-16T05:18:33;18.63;;;9.15;;
22439;SDS011;11387;51.612;7.210;2024-01-16T05:20:56;15.70;;;9.48;;
22439;SDS011;11387;51.612;7.210;2024-01-16T05:23:22;17.83;;;10.60;;
22439;SDS011;11387;51.612;7.210;2024-01-16T05:25:45;17.20;;;9.80;;
22439;SDS011;11387;51.612;7.210;2024-01-16T05:28:09;24.30;;;9.10;;
22439;SDS011;11387;51.612;7.210;2024-01-16T05:30:34;19.35;;;9.15;;
22439;SDS011;11387;51.612;7.210;2024-01-16T05:32:58;18.75;;;9.07;;
22439;SDS011;11387;51.612;7.210;2024-01-16T05:35:23;24.30;;;9.80;;
22439;SDS011;11387;51.612;7.210;2024-01-16T05:37:47;15.65;;;8.70;;
22439;SDS011;11387;51.612;7.210;2024-01-16T05:40:11;22.70;;;9.32;;
22439;SDS011;11387;51.612;7.210;2024-01-16T05:42:34;20.65;;;9.05;;
22439;SDS011;11387;51.612;7.210;2024-01-16T05:44:58;18.73;;;8.27;;
22439;SDS011;11387;51.612;7.210;2024-01-16T05:47:23;22.40;;;8.80;;
22439;SDS011;11387;51.612;7.210;2024-01-16T05:49:50;22.40;;;8.77;;
22439;SDS011;11387;51.612;7.210;2024-01-16T05:52:13;18.70;;;9.20;;
22439;SDS011;11387;51.612;7.210;2024-01-16T05:54:37;18.88;;;9.65;;
22439;SDS011;11387;51.612;7.210;2024-01-16T05:57:01;15.52;;;7.97;;
22439;SDS011;11387;51.612;7.210;2024-01-16T05:59:25;17.65;;;7.88;;
22439;SDS011;11387;51.612;7.210;2024-01-16T06:01:48;19.95;;;8.82;;
22439;SDS011;11387;51.612;7.210;2024-01-16T06:04:13;21.67;;;8.23;;
22439;SDS011;11387;51.612;7.210;2024-01-16T06:06:37;17.70;;;8.85;;
22439;SDS011;11387;51.612;7.210;2024-01-16T06:09:01;15.27;;;8.45;;
22439;SDS011;11387;51.612;7.210;2024-01-16T06:11:30;18.27;;;7.93;;
22439;SDS011;11387;51.612;7.210;2024-01-16T06:13:54;14.20;;;7.32;;
22439;SDS011;11387;51.612;7.210;2024-01-16T06:16:18;18.50;;;6.45;;
22439;SDS011;11387;51.612;7.210;2024-01-16T06:18:41;12.95;;;7.40;;
22439;SDS011;11387;51.612;7.210;2024-01-16T06:21:06;18.23;;;7.53;;
22439;SDS011;11387;51.612;7.210;2024-01-16T06:23:30;15.48;;;7.03;;
22439;SDS011;11387;51.612;7.210;2024-01-16T06:25:54;20.88;;;7.30;;
22439;SDS011;11387;51.612;7.210;2024-01-16T06:28:21;14.23;;;7.35;;
22439;SDS011;11387;51.612;7.210;2024-01-16T06:30:44;22.08;;;7.45;;
22439;SDS011;11387;51.612;7.210;2024-01-16T06:33:08;16.33;;;6.80;;
22439;SDS011;11387;51.612;7.210;2024-01-16T06:35:32;13.80;;;7.03;;
22439;SDS011;11387;51.612;7.210;2024-01-16T06:37:57;21.38;;;8.02;;
22439;SDS011;11387;51.612;7.210;2024-01-16T06:40:21;15.82;;;7.63;;
22439;SDS011;11387;51.612;7.210;2024-01-16T06:42:44;19.42;;;7.88;;
22439;SDS011;11387;51.612;7.210;2024-01-16T06:45:08;17.13;;;7.47;;
22439;SDS011;11387;51.612;7.210;2024-01-16T06:47:32;15.77;;;9.15;;
22439;SDS011;11387;51.612;7.210;2024-01-16T06:49:56;17.90;;;9.27;;
22439;SDS011;11387;51.612;7.210;2024-01-16T06:52:19;17.70;;;9.70;;
22439;SDS011;11387;51.612;7.210;2024-01-16T06:54:44;20.98;;;9.50;;
22439;SDS011;11387;51.612;7.210;2024-01-16T06:57:08;23.42;;;9.75;;
22439;SDS011;11387;51.612;7.210;2024-01-16T06:59:31;20.08;;;9.68;;
22439;SDS011;11387;51.612;7.210;2024-01-16T07:01:55;18.65;;;11.07;;
22439;SDS011;11387;51.612;7.210;2024-01-16T07:04:19;19.35;;;11.60;;
22439;SDS011;11387;51.612;7.210;2024-01-16T07:06:42;29.27;;;12.88;;
22439;SDS011;11387;51.612;7.210;2024-01-16T07:09:06;20.80;;;12.30;;
22439;SDS011;11387;51.612;7.210;2024-01-16T07:11:34;30.23;;;13.20;;
22439;SDS011;11387;51.612;7.210;2024-01-16T07:13:58;27.40;;;14.07;;
22439;SDS011;11387;51.612;7.210;2024-01-16T07:16:21;24.05;;;14.15;;
22439;SDS011;11387;51.612;7.210;2024-01-16T07:18:45;30.63;;;16.17;;
22439;SDS011;11387;51.612;7.210;2024-01-16T07:21:17;38.55;;;16.60;;
22439;SDS011;11387;51.612;7.210;2024-01-16T07:23:44;29.58;;;16.08;;
22439;SDS011;11387;51.612;7.210;2024-01-16T07:26:08;27.40;;;15.75;;
22439;SDS011;11387;51.612;7.210;2024-01-16T07:28:33;33.97;;;17.38;;
22439;SDS011;11387;51.612;7.210;2024-01-16T07:30:56;35.88;;;18.00;;
22439;SDS011;11387;51.612;7.210;2024-01-16T07:33:20;35.33;;;19.33;;
22439;SDS011;11387;51.612;7.210;2024-01-16T07:35:44;35.70;;;19.65;;
22439;SDS011;11387;51.612;7.210;2024-01-16T07:38:10;37.80;;;20.58;;
22439;SDS011;11387;51.612;7.210;2024-01-16T07:40:34;43.63;;;22.85;;
22439;SDS011;11387;51.612;7.210;2024-01-16T07:42:57;38.67;;;21.77;;
22439;SDS011;11387;51.612;7.210;2024-01-16T07:45:22;39.38;;;22.55;;
22439;SDS011;11387;51.612;7.210;2024-01-16T07:47:46;49.22;;;23.02;;
22439;SDS011;11387;51.612;7.210;2024-01-16T07:50:09;37.47;;;21.38;;
22439;SDS011;11387;51.612;7.210;2024-01-16T07:52:33;44.65;;;20.17;;
22439;SDS011;11387;51.612;7.210;2024-01-16T07:54:57;42.67;;;18.73;;
22439;SDS011;11387;51.612;7.210;2024-01-16T07:57:20;32.58;;;17.35;;
22439;SDS011;11387;51.612;7.210;2024-01-16T07:59:44;44.28;;;17.00;;
22439;SDS011;11387;51.612;7.210;2024-01-16T08:02:08;29.05;;;17.02;;
22439;SDS011;11387;51.612;7.210;2024-01-16T08:04:32;30.60;;;16.10;;
22439;SDS011;11387;51.612;7.210;2024-01-16T08:06:56;34.78;;;15.35;;
22439;SDS011;11387;51.612;7.210;2024-01-16T08:09:19;35.40;;;15.25;;
22439;SDS011;11387;51.612;7.210;2024-01-16T08:11:43;28.55;;;15.13;;
22439;SDS011;11387;51.612;7.210;2024-01-16T08:14:07;24.27;;;12.95;;
22439;SDS011;11387;51.612;7.210;2024-01-16T08:16:31;25.75;;;13.00;;
22439;SDS011;11387;51.612;7.210;2024-01-16T08:18:56;25.67;;;11.95;;
22439;SDS011;11387;51.612;7.210;2024-01-16T08:21:20;29.35;;;12.45;;
22439;SDS011;11387;51.612;7.210;2024-01-16T08:23:44;30.58;;;10.82;;
22439;SDS011;11387;51.612;7.210;2024-01-16T08:26:07;20.55;;;11.02;;
22439;SDS011;11387;51.612;7.210;2024-01-16T08:28:31;25.73;;;10.80;;
22439;SDS011;11387;51.612;7.210;2024-01-16T08:30:54;19.17;;;10.40;;
22439;SDS011;11387;51.612;7.210;2024-01-16T08:33:18;25.15;;;8.60;;
22439;SDS011;11387;51.612;7.210;2024-01-16T08:35:56;17.20;;;7.47;;
22439;SDS011;11387;51.612;7.210;2024-01-16T08:38:20;26.90;;;8.35;;
22439;SDS011;11387;51.612;7.210;2024-01-16T08:40:43;21.40;;;7.72;;
22439;SDS011;11387;51.612;7.210;2024-01-16T08:43:07;17.42;;;6.35;;
22439;SDS011;11387;51.612;7.210;2024-01-16T08:45:30;15.35;;;7.85;;
22439;SDS011;11387;51.612;7.210;2024-01-16T08:47:54;22.23;;;6.28;;
22439;SDS011;11387;51.612;7.210;2024-01-16T08:50:17;17.92;;;6.80;;
22439;SDS011;11387;51.612;7.210;2024-01-16T08:52:43;19.67;;;7.20;;
22439;SDS011;11387;51.612;7.210;2024-01-16T08:55:06;15.70;;;6.55;;
22439;SDS011;11387;51.612;7.210;2024-01-16T08:57:31;17.65;;;6.38;;
22439;SDS011;11387;51.612;7.210;2024-01-16T08:59:54;14.48;;;4.78;;
22439;SDS011;11387;51.612;7.210;2024-01-16T09:02:18;21.48;;;4.88;;
22439;SDS011;11387;51.612;7.210;2024-01-16T09:04:41;17.65;;;5.05;;
22439;SDS011;11387;51.612;7.210;2024-01-16T09:07:05;14.40;;;5.03;;
22439;SDS011;11387;51.612;7.210;2024-01-16T09:09:30;13.85;;;4.97;;
22439;SDS011;11387;51.612;7.210;2024-01-16T09:11:54;14.23;;;4.20;;
22439;SDS011;11387;51.612;7.210;2024-01-16T09:14:20;16.55;;;4.28;;
22439;SDS011;11387;51.612;7.210;2024-01-16T09:16:43;15.75;;;4.85;;
22439;SDS011;11387;51.612;7.210;2024-01-16T09:19:08;17.48;;;4.63;;
22439;SDS011;11387;51.612;7.210;2024-01-16T09:21:33;16.15;;;4.88;;
22439;SDS011;11387;51.612;7.210;2024-01-16T09:23:57;16.67;;;4.57;;
22439;SDS011;11387;51.612;7.210;2024-01-16T09:26:22;14.65;;;3.75;;
22439;SDS011;11387;51.612;7.210;2024-01-16T09:28:45;12.63;;;3.83;;
22439;SDS011;11387;51.612;7.210;2024-01-16T09:31:09;11.88;;;4.25;;
22439;SDS011;11387;51.612;7.210;2024-01-16T09:33:33;14.13;;;3.90;;
22439;SDS011;11387;51.612;7.210;2024-01-16T09:35:57;12.55;;;3.38;;
22439;SDS011;11387;51.612;7.210;2024-01-16T09:38:21;12.80;;;3.83;;
22439;SDS011;11387;51.612;7.210;2024-01-16T09:40:45;16.45;;;4.45;;
22439;SDS011;11387;51.612;7.210;2024-01-16T09:43:11;12.98;;;3.65;;
22439;SDS011;11387;51.612;7.210;2024-01-16T09:45:35;15.02;;;4.25;;
22439;SDS011;11387;51.612;7.210;2024-01-16T09:48:00;15.15;;;3.90;;
22439;SDS011;11387;51.612;7.210;2024-01-16T09:50:26;16.02;;;3.92;;
22439;SDS011;11387;51.612;7.210;2024-01-16T09:52:50;13.40;;;3.72;;
22439;SDS011;11387;51.612;7.210;2024-01-16T09:55:15;22.85;;;4.03;;
22439;SDS011;11387;51.612;7.210;2024-01-16T09:57:40;17.42;;;3.90;;
22439;SDS011;11387;51.612;7.210;2024-01-16T10:00:06;19.10;;;3.95;;
22439;SDS011;11387;51.612;7.210;2024-01-16T10:02:33;13.20;;;3.42;;
22439;SDS011;11387;51.612;7.210;2024-01-16T10:04:57;14.98;;;3.47;;
22439;SDS011;11387;51.612;7.210;2024-01-16T10:07:21;20.50;;;4.40;;
22439;SDS011;11387;51.612;7.210;2024-01-16T10:09:49;15.43;;;4.47;;
22439;SDS011;11387;51.612;7.210;2024-01-16T10:12:13;11.23;;;3.83;;
22439;SDS011;11387;51.612;7.210;2024-01-16T10:14:37;13.90;;;4.05;;
22439;SDS011;11387;51.612;7.210;2024-01-16T10:17:04;8.52;;;3.17;;
22439;SDS011;11387;51.612;7.210;2024-01-16T10:19:31;12.75;;;4.03;;
22439;SDS011;11387;51.612;7.210;2024-01-16T10:24:33;10.50;;;3.40;;
22439;SDS011;11387;51.612;7.210;2024-01-16T10:26:57;11.20;;;3.60;;
22439;SDS011;11387;51.612;7.210;2024-01-16T10:29:23;13.13;;;3.55;;
22439;SDS011;11387;51.612;7.210;2024-01-16T10:32:08;14.98;;;4.68;;
22439;SDS011;11387;51.612;7.210;2024-01-16T10:34:32;9.85;;;3.58;;
22439;SDS011;11387;51.612;7.210;2024-01-16T10:36:58;16.35;;;3.75;;
22439;SDS011;11387;51.612;7.210;2024-01-16T10:39:22;13.00;;;4.10;;
22439;SDS011;11387;51.612;7.210;2024-01-16T10:41:59;15.43;;;4.90;;
22439;SDS011;11387;51.612;7.210;2024-01-16T10:44:24;12.57;;;3.53;;
22439;SDS011;11387;51.612;7.210;2024-01-16T10:46:49;13.18;;;4.00;;
22439;SDS011;11387;51.612;7.210;2024-01-16T10:49:14;19.45;;;4.57;;
22439;SDS011;11387;51.612;7.210;2024-01-16T10:51:38;14.38;;;3.88;;
22439;SDS011;11387;51.612;7.210;2024-01-16T10:54:03;13.45;;;3.88;;
22439;SDS011;11387;51.612;7.210;2024-01-16T10:56:27;10.57;;;3.80;;
22439;SDS011;11387;51.612;7.210;2024-01-16T10:58:52;14.27;;;4.35;;
22439;SDS011;11387;51.612;7.210;2024-01-16T11:01:25;12.65;;;3.97;;
22439;SDS011;11387;51.612;7.210;2024-01-16T11:03:50;11.07;;;3.53;;
22439;SDS011;11387;51.612;7.210;2024-01-16T11:06:20;20.20;;;3.83;;
22439;SDS011;11387;51.612;7.210;2024-01-16T11:08:45;10.23;;;3.85;;
22439;SDS011;11387;51.612;7.210;2024-01-16T11:11:09;14.13;;;3.20;;
22439;SDS011;11387;51.612;7.210;2024-01-16T11:13:33;14.00;;;3.75;;
22439;SDS011;11387;51.612;7.210;2024-01-16T11:15:58;9.40;;;3.30;;
22439;SDS011;11387;51.612;7.210;2024-01-16T11:18:22;13.65;;;3.58;;
22439;SDS011;11387;51.612;7.210;2024-01-16T11:20:48;17.58;;;3.50;;
22439;SDS011;11387;51.612;7.210;2024-01-16T11:23:29;12.52;;;3.95;;
22439;SDS011;11387;51.612;7.210;2024-01-16T11:25:53;14.20;;;3.47;;
22439;SDS011;11387;51.612;7.210;2024-01-16T11:28:17;14.63;;;3.17;;
22439;SDS011;11387;51.612;7.210;2024-01-16T11:30:42;13.10;;;4.20;;
22439;SDS011;11387;51.612;7.210;2024-01-16T11:33:06;12.70;;;3.83;;
22439;SDS011;11387;51.612;7.210;2024-01-16T11:35:50;16.77;;;3.65;;
22439;SDS011;11387;51.612;7.210;2024-01-16T11:38:14;21.15;;;3.47;;
22439;SDS011;11387;51.612;7.210;2024-01-16T11:40:40;14.32;;;3.88;;
22439;SDS011;11387;51.612;7.210;2024-01-16T11:45:59;14.63;;;3.28;;
22439;SDS011;11387;51.612;7.210;2024-01-16T11:48:23;11.15;;;3.30;;
22439;SDS011;11387;51.612;7.210;2024-01-16T11:50:48;8.65;;;3.45;;
22439;SDS011;11387;51.612;7.210;2024-01-16T11:56:07;15.40;;;3.13;;
22439;SDS011;11387;51.612;7.210;2024-01-16T11:59:08;10.23;;;3.58;;
22439;SDS011;11387;51.612;7.210;2024-01-16T12:01:50;12.50;;;3.83;;
22439;SDS011;11387;51.612;7.210;2024-01-16T12:04:15;16.30;;;4.15;;
22439;SDS011;11387;51.612;7.210;2024-01-16T12:06:41;13.82;;;4.95;;
22439;SDS011;11387;51.612;7.210;2024-01-16T12:09:11;17.45;;;3.50;;
22439;SDS011;11387;51.612;7.210;2024-01-16T12:11:37;12.10;;;3.97;;
22439;SDS011;11387;51.612;7.210;2024-01-16T12:14:05;16.00;;;4.13;;
22439;SDS011;11387;51.612;7.210;2024-01-16T12:16:28;11.95;;;4.28;;
22439;SDS011;11387;51.612;7.210;2024-01-16T12:19:03;12.02;;;4.03;;
22439;SDS011;11387;51.612;7.210;2024-01-16T12:21:27;8.73;;;3.70;;
22439;SDS011;11387;51.612;7.210;2024-01-16T12:23:51;17.60;;;4.25;;
22439;SDS011;11387;51.612;7.210;2024-01-16T12:26:30;11.48;;;3.40;;
22439;SDS011;11387;51.612;7.210;2024-01-16T12:28:56;17.52;;;4.25;;
22439;SDS011;11387;51.612;7.210;2024-01-16T12:31:21;15.25;;;4.47;;
22439;SDS011;11387;51.612;7.210;2024-01-16T12:33:47;19.65;;;6.00;;
22439;SDS011;11387;51.612;7.210;2024-01-16T12:36:22;10.98;;;3.22;;
22439;SDS011;11387;51.612;7.210;2024-01-16T12:38:53;9.70;;;3.20;;
22439;SDS011;11387;51.612;7.210;2024-01-16T12:41:19;14.05;;;3.65;;
22439;SDS011;11387;51.612;7.210;2024-01-16T12:43:58;15.63;;;4.37;;
22439;SDS011;11387;51.612;7.210;2024-01-16T12:46:36;12.10;;;3.33;;
22439;SDS011;11387;51.612;7.210;2024-01-16T12:49:00;11.98;;;3.78;;
22439;SDS011;11387;51.612;7.210;2024-01-16T12:51:27;24.30;;;4.80;;
22439;SDS011;11387;51.612;7.210;2024-01-16T12:53:51;13.15;;;3.13;;
22439;SDS011;11387;51.612;7.210;2024-01-16T12:56:18;12.30;;;4.00;;
22439;SDS011;11387;51.612;7.210;2024-01-16T12:59:00;9.35;;;3.00;;
22439;SDS011;11387;51.612;7.210;2024-01-16T13:01:32;13.35;;;3.80;;
22439;SDS011;11387;51.612;7.210;2024-01-16T13:04:03;9.13;;;4.07;;
22439;SDS011;11387;51.612;7.210;2024-01-16T13:06:30;16.48;;;3.97;;
22439;SDS011;11387;51.612;7.210;2024-01-16T13:09:03;8.90;;;3.70;;
22439;SDS011;11387;51.612;7.210;2024-01-16T13:11:31;22.60;;;5.50;;
22439;SDS011;11387;51.612;7.210;2024-01-16T13:14:09;19.30;;;3.95;;
22439;SDS011;11387;51.612;7.210;2024-01-16T13:16:33;9.95;;;4.10;;
22439;SDS011;11387;51.612;7.210;2024-01-16T13:18:59;10.10;;;3.83;;
22439;SDS011;11387;51.612;7.210;2024-01-16T13:21:24;15.00;;;3.70;;
22439;SDS011;11387;51.612;7.210;2024-01-16T13:23:47;14.43;;;3.58;;
22439;SDS011;11387;51.612;7.210;2024-01-16T13:26:11;15.38;;;3.95;;
22439;SDS011;11387;51.612;7.210;2024-01-16T13:28:35;12.73;;;4.22;;
22439;SDS011;11387;51.612;7.210;2024-01-16T13:31:02;16.25;;;3.97;;
22439;SDS011;11387;51.612;7.210;2024-01-16T13:33:26;13.98;;;3.78;;
22439;SDS011;11387;51.612;7.210;2024-01-16T13:35:50;14.00;;;3.72;;
22439;SDS011;11387;51.612;7.210;2024-01-16T13:38:14;10.50;;;4.28;;
22439;SDS011;11387;51.612;7.210;2024-01-16T13:40:39;20.45;;;4.50;;
22439;SDS011;11387;51.612;7.210;2024-01-16T13:43:03;15.55;;;5.05;;
22439;SDS011;11387;51.612;7.210;2024-01-16T13:45:28;17.23;;;4.05;;
22439;SDS011;11387;51.612;7.210;2024-01-16T13:47:53;10.23;;;3.83;;
22439;SDS011;11387;51.612;7.210;2024-01-16T13:50:17;9.45;;;3.97;;
22439;SDS011;11387;51.612;7.210;2024-01-16T13:52:41;9.90;;;4.15;;
22439;SDS011;11387;51.612;7.210;2024-01-16T13:55:05;17.23;;;4.43;;
22439;SDS011;11387;51.612;7.210;2024-01-16T13:57:29;10.10;;;4.15;;
22439;SDS011;11387;51.612;7.210;2024-01-16T13:59:52;10.68;;;4.18;;
22439;SDS011;11387;51.612;7.210;2024-01-16T14:02:16;12.95;;;4.20;;
22439;SDS011;11387;51.612;7.210;2024-01-16T14:04:41;12.35;;;4.00;;
22439;SDS011;11387;51.612;7.210;2024-01-16T14:07:04;17.88;;;4.18;;
22439;SDS011;11387;51.612;7.210;2024-01-16T14:09:35;14.60;;;4.22;;
22439;SDS011;11387;51.612;7.210;2024-01-16T14:11:59;12.88;;;3.95;;
22439;SDS011;11387;51.612;7.210;2024-01-16T14:14:23;17.02;;;4.20;;
22439;SDS011;11387;51.612;7.210;2024-01-16T14:16:46;9.15;;;3.88;;
22439;SDS011;11387;51.612;7.210;2024-01-16T14:19:21;16.58;;;4.68;;
22439;SDS011;11387;51.612;7.210;2024-01-16T14:21:48;11.18;;;4.78;;
22439;SDS011;11387;51.612;7.210;2024-01-16T14:24:11;7.40;;;3.45;;
22439;SDS011;11387;51.612;7.210;2024-01-16T14:26:35;21.75;;;5.30;;
22439;SDS011;11387;51.612;7.210;2024-01-16T14:28:59;15.05;;;4.18;;
22439;SDS011;11387;51.612;7.210;2024-01-16T14:31:23;11.77;;;4.72;;
22439;SDS011;11387;51.612;7.210;2024-01-16T14:33:48;9.07;;;4.13;;
22439;SDS011;11387;51.612;7.210;2024-01-16T14:36:12;15.00;;;4.32;;
22439;SDS011;11387;51.612;7.210;2024-01-16T14:38:37;12.38;;;4.38;;
22439;SDS011;11387;51.612;7.210;2024-01-16T14:41:00;16.25;;;4.93;;